createdAt,value
2022-12-05T00:01:19.687Z,1120.5
2022-12-05T00:03:03.087Z,1122.6
2022-12-05T00:04:46.479Z,1125.1
2022-12-05T00:06:29.860Z,1125.2
2022-12-05T00:08:13.266Z,1126.5
2022-12-05T00:09:56.696Z,1130.1
2022-12-05T00:13:23.149Z,1126.2
2022-12-05T00:15:06.524Z,1122.6
2022-12-05T00:16:49.931Z,1120.2
2022-12-05T00:18:33.324Z,1118.5
2022-12-05T00:20:16.706Z,1115.3
2022-12-05T00:22:00.156Z,1112.5
2022-12-05T00:23:43.520Z,1112.8
2022-12-05T00:25:26.934Z,1113.1
2022-12-05T00:28:53.383Z,1110.4
2022-12-05T00:30:36.791Z,1110.8
2022-12-05T00:32:20.168Z,1110.4
2022-12-05T00:34:03.556Z,1106.8
2022-12-05T00:35:46.979Z,1102.2
2022-12-05T00:37:30.350Z,1100.1
2022-12-05T00:39:13.761Z,1096.4
2022-12-05T00:40:57.145Z,1093.8
2022-12-05T00:42:40.556Z,1089.7
2022-12-05T00:44:24.261Z,1089.6
2022-12-05T00:46:07.691Z,1089.2
2022-12-05T00:47:51.033Z,1089.4
2022-12-05T00:49:34.428Z,1092
2022-12-05T00:51:17.826Z,1092.3
2022-12-05T00:53:01.226Z,1090.3
2022-12-05T00:54:44.616Z,1089.4
2022-12-05T00:56:28.026Z,1087.7
2022-12-05T01:01:37.258Z,1094.3
2022-12-05T01:03:20.898Z,1095.3
2022-12-05T01:05:04.055Z,1091.5
2022-12-05T01:06:47.459Z,1090.8
2022-12-05T01:08:30.848Z,1090.1
2022-12-05T01:10:14.242Z,1087.3
2022-12-05T01:11:57.638Z,1085.1
2022-12-05T01:13:41.032Z,1086.5
2022-12-05T01:18:50.273Z,1079.7
2022-12-05T01:20:33.680Z,1076.6
2022-12-05T01:22:17.078Z,1073.4
2022-12-05T01:24:00.470Z,1075.6
2022-12-05T01:25:43.862Z,1074.8
2022-12-05T01:27:27.261Z,1076.7
2022-12-05T01:29:10.649Z,1076.3
2022-12-05T01:30:54.055Z,1077.7
2022-12-05T01:36:03.301Z,1074.5
2022-12-05T01:37:46.695Z,1071.2
2022-12-05T01:39:30.106Z,1072.7
2022-12-05T01:41:13.504Z,1074.3
2022-12-05T01:42:56.892Z,1072.7
2022-12-05T01:44:40.287Z,1070.7
2022-12-05T01:46:23.671Z,1070.4
2022-12-05T01:48:07.073Z,1068.4
2022-12-05T01:53:16.309Z,1068.9
2022-12-05T01:54:59.715Z,1069.8
2022-12-05T01:56:43.111Z,1070.6
2022-12-05T01:58:26.502Z,1073.3
2022-12-05T02:00:09.887Z,1072.6
2022-12-05T02:01:53.293Z,1069.4
2022-12-05T02:03:36.685Z,1066.5
2022-12-05T02:05:20.073Z,1064.1
2022-12-05T02:07:03.467Z,1067.7
2022-12-05T02:10:29.953Z,1069.6
2022-12-05T02:12:13.342Z,1069
2022-12-05T02:13:56.751Z,1068.8
2022-12-05T02:15:40.136Z,1069.8
2022-12-05T02:17:23.537Z,1071.3
2022-12-05T02:19:06.924Z,1066.7
2022-12-05T02:20:50.333Z,1063.7
2022-12-05T02:22:33.720Z,1062.3
2022-12-05T02:27:42.953Z,1057.9
2022-12-05T02:29:26.359Z,1057
2022-12-05T02:31:09.759Z,1057.7
2022-12-05T02:32:53.162Z,1058.8
2022-12-05T02:34:36.562Z,1056.3
2022-12-05T02:36:19.957Z,1054.1
2022-12-05T02:38:03.343Z,1051.3
2022-12-05T02:39:46.760Z,1051.8
2022-12-05T02:44:55.989Z,1050.1
2022-12-05T02:46:39.385Z,1051
2022-12-05T02:48:22.767Z,1052.8
2022-12-05T02:50:06.168Z,1056.2
2022-12-05T02:51:49.565Z,1054.4
2022-12-05T02:53:32.966Z,1051.4
2022-12-05T02:55:16.363Z,1049.7
2022-12-05T02:56:59.761Z,1048.7
2022-12-05T03:02:08.990Z,1048.4
2022-12-05T03:03:52.393Z,1045.2
2022-12-05T03:05:35.799Z,1042.2
2022-12-05T03:07:19.178Z,1037.6
2022-12-05T03:09:02.641Z,1038.1
2022-12-05T03:10:45.975Z,1038.5
2022-12-05T03:12:29.367Z,1038.3
2022-12-05T03:14:12.783Z,1038
2022-12-05T03:19:22.027Z,1034.8
2022-12-05T03:21:05.412Z,1035.7
2022-12-05T03:22:48.798Z,1036.5
2022-12-05T03:24:32.200Z,1037.6
2022-12-05T03:26:15.597Z,1039
2022-12-05T03:27:59.001Z,1039.7
2022-12-05T03:29:42.400Z,1041.2
2022-12-05T03:31:25.772Z,1039.3
2022-12-05T03:34:52.258Z,1034.2
2022-12-05T03:36:41.560Z,1035.3
2022-12-05T03:38:19.059Z,1035.1
2022-12-05T03:40:02.442Z,1035.7
2022-12-05T03:41:45.844Z,1038
2022-12-05T03:43:29.240Z,1042.2
2022-12-05T03:45:12.637Z,1040.4
2022-12-05T03:46:56.024Z,1038.3
2022-12-05T03:48:39.427Z,1036.8
2022-12-05T03:50:23.120Z,1035.4
2022-12-05T03:52:06.529Z,1028.7
2022-12-05T03:53:49.925Z,1027.6
2022-12-05T03:55:33.322Z,1028.6
2022-12-05T03:57:16.705Z,1028.4
2022-12-05T03:59:00.112Z,1028.3
2022-12-05T04:02:26.904Z,1026.7
2022-12-05T04:04:10.309Z,1025.5
2022-12-05T04:09:19.528Z,1023.7
2022-12-05T04:11:02.935Z,1020.4
2022-12-05T04:12:46.342Z,1018.7
2022-12-05T04:14:29.730Z,1017
2022-12-05T04:16:13.148Z,1022.7
2022-12-05T04:17:56.518Z,1024.8
2022-12-05T04:19:39.922Z,1026.1
2022-12-05T04:21:23.315Z,1025.1
2022-12-05T04:26:32.566Z,1022.1
2022-12-05T04:28:15.955Z,1018.8
2022-12-05T04:29:59.361Z,1014.8
2022-12-05T04:31:42.746Z,1015.1
2022-12-05T04:33:26.155Z,1016
2022-12-05T04:35:09.536Z,1018.3
2022-12-05T04:36:52.943Z,1018.7
2022-12-05T04:38:36.350Z,1018.3
2022-12-05T04:42:02.883Z,1017.6
2022-12-05T04:43:46.214Z,1014.6
2022-12-05T04:45:29.593Z,1013.4
2022-12-05T04:47:13.003Z,1016.6
2022-12-05T04:48:56.393Z,1013
2022-12-05T04:50:39.799Z,1011.2
2022-12-05T04:52:23.191Z,1011
2022-12-05T04:54:06.582Z,1008.8
2022-12-05T04:57:33.107Z,1010.3
2022-12-05T04:59:16.463Z,1012
2022-12-05T05:00:59.859Z,1012.6
2022-12-05T05:02:43.283Z,1015.2
2022-12-05T05:04:26.632Z,1015.6
2022-12-05T05:06:10.037Z,1015.5
2022-12-05T05:07:53.440Z,1012.7
2022-12-05T05:09:36.823Z,1012.4
2022-12-05T05:14:46.083Z,1005.2
2022-12-05T05:16:29.478Z,1006.8
2022-12-05T05:18:12.862Z,1006.5
2022-12-05T05:19:56.267Z,1005.5
2022-12-05T05:21:39.666Z,1004.6
2022-12-05T05:23:23.046Z,1004.4
2022-12-05T05:25:06.445Z,1005.4
2022-12-05T05:26:49.851Z,1004
2022-12-05T05:30:16.311Z,1004.2
2022-12-05T05:31:59.712Z,1002.5
2022-12-05T05:33:43.102Z,1002.5
2022-12-05T05:35:26.508Z,1002.7
2022-12-05T05:37:09.926Z,1001.5
2022-12-05T05:38:53.302Z,1002.2
2022-12-05T05:40:36.685Z,1003.4
2022-12-05T05:42:20.099Z,1005
2022-12-05T05:45:46.566Z,1005.4
2022-12-05T05:47:29.974Z,1006.2
2022-12-05T05:49:13.356Z,1003.2
2022-12-05T05:50:56.754Z,997.1
2022-12-05T05:52:40.142Z,998.7
2022-12-05T05:54:23.557Z,1001.1
2022-12-05T05:56:06.952Z,996.4
2022-12-05T05:57:50.488Z,996.7
2022-12-05T06:01:16.816Z,996.6
2022-12-05T06:03:00.203Z,995.8
2022-12-05T06:04:43.602Z,997.5
2022-12-05T06:06:27.192Z,997.3
2022-12-05T06:08:10.403Z,996.4
2022-12-05T06:09:53.790Z,995.6
2022-12-05T06:11:37.246Z,993.7
2022-12-05T06:13:20.586Z,991.8
2022-12-05T06:16:47.080Z,993.7
2022-12-05T06:18:30.463Z,994.1
2022-12-05T06:20:13.849Z,992.3
2022-12-05T06:21:57.245Z,993.3
2022-12-05T06:23:40.644Z,992.5
2022-12-05T06:25:24.036Z,990.7
2022-12-05T06:27:07.460Z,991
2022-12-05T06:28:50.829Z,991.2
2022-12-05T06:30:34.222Z,987.7
2022-12-05T06:34:00.711Z,989.8
2022-12-05T06:35:44.091Z,991.6
2022-12-05T06:37:27.504Z,993.1
2022-12-05T06:39:10.906Z,992.8
2022-12-05T06:40:54.288Z,992.6
2022-12-05T06:42:37.684Z,992
2022-12-05T06:44:21.082Z,991.7
2022-12-05T06:46:04.477Z,988.5
2022-12-05T06:47:47.872Z,984.2
2022-12-05T06:49:31.587Z,983.2
2022-12-05T06:51:14.964Z,980.1
2022-12-05T06:52:58.365Z,976.2
2022-12-05T06:54:41.769Z,978
2022-12-05T06:56:25.166Z,975.7
2022-12-05T06:58:08.548Z,977.2
2022-12-05T06:59:51.959Z,979.3
2022-12-05T07:01:35.333Z,981
2022-12-05T07:03:18.746Z,980.5
2022-12-05T07:05:02.432Z,979.2
2022-12-05T07:06:45.851Z,980
2022-12-05T07:08:29.249Z,979
2022-12-05T07:10:12.627Z,976.3
2022-12-05T07:11:56.035Z,972.3
2022-12-05T07:13:39.453Z,969.2
2022-12-05T07:15:22.818Z,966.7
2022-12-05T07:17:06.219Z,966.1
2022-12-05T07:18:49.619Z,965.8
2022-12-05T07:20:33.309Z,967
2022-12-05T07:22:16.720Z,967.4
2022-12-05T07:24:00.102Z,969.5
2022-12-05T07:25:43.515Z,970.5
2022-12-05T07:27:26.913Z,967.3
2022-12-05T07:29:10.368Z,965.4
2022-12-05T07:30:53.688Z,963.5
2022-12-05T07:32:37.084Z,965.2
2022-12-05T07:37:46.350Z,963.6
2022-12-05T07:39:29.735Z,965.6
2022-12-05T07:41:13.128Z,966.3
2022-12-05T07:42:56.529Z,964.5
2022-12-05T07:44:39.918Z,962.1
2022-12-05T07:46:23.320Z,960.2
2022-12-05T07:48:06.698Z,956.5
2022-12-05T07:49:50.159Z,957
2022-12-05T07:51:33.814Z,957.1
2022-12-05T07:53:17.232Z,957.8
2022-12-05T07:55:00.685Z,958.2
2022-12-05T07:56:44.038Z,956.7
2022-12-05T07:58:27.398Z,960.4
2022-12-05T08:00:10.826Z,958
2022-12-05T08:01:54.210Z,956.4
2022-12-05T08:03:37.595Z,954.2
2022-12-05T08:07:04.061Z,946.3
2022-12-05T08:08:47.454Z,940.6
2022-12-05T08:10:30.856Z,939.6
2022-12-05T08:12:14.246Z,937.7
2022-12-05T08:13:57.649Z,932.6
2022-12-05T08:17:24.442Z,922
2022-12-05T08:19:07.837Z,920.4
2022-12-05T08:22:34.321Z,913
2022-12-05T08:24:17.700Z,909.5
2022-12-05T08:26:01.103Z,900.6
2022-12-05T08:27:44.493Z,896.5
2022-12-05T08:29:27.905Z,894.8
2022-12-05T08:31:11.296Z,902.4
2022-12-05T08:32:54.690Z,912.5
2022-12-05T08:34:38.071Z,916
2022-12-05T08:38:04.620Z,921.7
2022-12-05T08:39:47.984Z,923.5
2022-12-05T08:41:31.354Z,926
2022-12-05T08:43:14.761Z,932.4
2022-12-05T08:44:58.170Z,940.3
2022-12-05T08:46:41.540Z,946.6
2022-12-05T08:48:24.939Z,962
2022-12-05T08:50:08.343Z,972.6
2022-12-05T08:55:17.570Z,975.5
2022-12-05T08:57:00.977Z,976.6
2022-12-05T08:58:44.361Z,973.1
2022-12-05T09:00:27.770Z,966.2
2022-12-05T09:02:11.165Z,958.7
2022-12-05T09:03:54.547Z,948.5
2022-12-05T09:05:37.944Z,939.5
2022-12-05T09:07:21.349Z,932.4
2022-12-05T09:12:30.597Z,944.3
2022-12-05T09:14:13.974Z,950.4
2022-12-05T09:15:57.373Z,956
2022-12-05T09:17:40.764Z,959.8
2022-12-05T09:19:24.193Z,961.8
2022-12-05T09:21:07.575Z,968.1
2022-12-05T09:22:50.978Z,971.6
2022-12-05T09:24:34.424Z,971.6
2022-12-05T09:29:43.609Z,972.2
2022-12-05T09:31:27.011Z,974.3
2022-12-05T09:33:10.400Z,974.2
2022-12-05T09:34:53.784Z,972.3
2022-12-05T09:36:37.190Z,969.2
2022-12-05T09:38:20.582Z,967.6
2022-12-05T09:40:03.995Z,963.1
2022-12-05T09:41:47.409Z,962.1
2022-12-05T09:46:56.616Z,973.4
2022-12-05T09:48:40.041Z,971.5
2022-12-05T09:50:23.422Z,967
2022-12-05T09:52:06.825Z,964.8
2022-12-05T09:53:50.206Z,964.4
2022-12-05T09:55:33.599Z,963.5
2022-12-05T09:57:17.018Z,961.4
2022-12-05T09:59:00.396Z,963.8
2022-12-05T10:04:09.644Z,968.3
2022-12-05T10:05:53.040Z,963.6
2022-12-05T10:07:36.434Z,961.7
2022-12-05T10:09:19.850Z,962.3
2022-12-05T10:11:03.249Z,962.5
2022-12-05T10:12:46.633Z,965.6
2022-12-05T10:14:30.022Z,965.3
2022-12-05T10:16:13.423Z,961.6
2022-12-05T10:21:22.660Z,960.9
2022-12-05T10:23:06.063Z,970.3
2022-12-05T10:24:49.450Z,974.5
2022-12-05T10:26:32.842Z,977.8
2022-12-05T10:28:16.430Z,1044.8
2022-12-05T10:29:59.666Z,1058.2
2022-12-05T10:31:43.035Z,1047.5
2022-12-05T10:33:26.447Z,1042.5
2022-12-05T10:38:35.713Z,1026.7
2022-12-05T10:40:19.084Z,1025.6
2022-12-05T10:42:02.463Z,1025.3
2022-12-05T10:43:45.880Z,1018.3
2022-12-05T10:45:29.261Z,1010.4
2022-12-05T10:47:12.661Z,1004.7
2022-12-05T10:48:56.068Z,1002.5
2022-12-05T10:50:39.439Z,1012.2
2022-12-05T10:55:48.717Z,1031.8
2022-12-05T10:57:32.169Z,1020.1
2022-12-05T10:59:15.602Z,1009.4
2022-12-05T11:00:58.889Z,1006
2022-12-05T11:02:42.830Z,1004.3
2022-12-05T11:04:25.684Z,996.4
2022-12-05T11:06:09.060Z,990.8
2022-12-05T11:07:52.478Z,987.8
2022-12-05T11:11:18.944Z,1003.1
2022-12-05T11:13:02.327Z,1006.4
2022-12-05T11:14:45.738Z,1008.4
2022-12-05T11:16:29.131Z,1009
2022-12-05T11:18:12.536Z,1009.8
2022-12-05T11:19:55.922Z,1006
2022-12-05T11:21:39.340Z,1001.4
2022-12-05T11:23:22.707Z,999.5
2022-12-05T11:28:31.957Z,989.2
2022-12-05T11:30:15.359Z,985.7
2022-12-05T11:31:58.749Z,982.7
2022-12-05T11:33:42.145Z,982.7
2022-12-05T11:35:25.541Z,977.6
2022-12-05T11:37:09.001Z,974
2022-12-05T11:38:52.337Z,970.6
2022-12-05T11:40:35.740Z,965.3
2022-12-05T11:44:02.212Z,953.6
2022-12-05T11:45:45.607Z,948.8
2022-12-05T11:47:29.006Z,944.3
2022-12-05T11:49:12.397Z,940.4
2022-12-05T11:50:55.784Z,936
2022-12-05T11:52:39.192Z,931.5
2022-12-05T11:54:22.590Z,925.1
2022-12-05T11:56:05.989Z,921.6
2022-12-05T12:01:15.232Z,915.8
2022-12-05T12:02:58.622Z,913.3
2022-12-05T12:04:42.025Z,911.6
2022-12-05T12:06:25.404Z,907.3
2022-12-05T12:08:08.801Z,903.8
2022-12-05T12:09:52.211Z,900.8
2022-12-05T12:11:35.608Z,897.8
2022-12-05T12:13:19.066Z,893.8
2022-12-05T12:16:45.493Z,888.9
2022-12-05T12:18:28.868Z,883.5
2022-12-05T12:20:12.309Z,880.7
2022-12-05T12:21:55.670Z,879.5
2022-12-05T12:23:39.056Z,878.8
2022-12-05T12:25:22.443Z,878.7
2022-12-05T12:27:05.851Z,879.4
2022-12-05T12:28:49.242Z,880
2022-12-05T12:33:58.496Z,873.1
2022-12-05T12:35:41.878Z,871.7
2022-12-05T12:37:25.279Z,871
2022-12-05T12:39:08.672Z,870.7
2022-12-05T12:40:52.094Z,869.7
2022-12-05T12:42:35.482Z,867.3
2022-12-05T12:44:18.855Z,865.1
2022-12-05T12:46:02.262Z,860.7
2022-12-05T12:51:11.532Z,846
2022-12-05T12:52:54.906Z,841.4
2022-12-05T12:54:38.297Z,836.5
2022-12-05T12:56:21.688Z,837.7
2022-12-05T12:58:05.108Z,846.8
2022-12-05T12:59:48.481Z,856
2022-12-05T13:01:32.122Z,864.1
2022-12-05T13:03:15.400Z,870
2022-12-05T13:04:58.662Z,877.3
2022-12-05T13:06:42.381Z,879.3
2022-12-05T13:08:25.769Z,880.8
2022-12-05T13:10:09.167Z,884.8
2022-12-05T13:11:52.564Z,884.2
2022-12-05T13:13:35.966Z,882.8
2022-12-05T13:15:19.365Z,880
2022-12-05T13:17:02.739Z,876.8
2022-12-05T13:18:46.137Z,881
2022-12-05T13:25:38.788Z,893.3
2022-12-05T13:27:22.179Z,896.7
2022-12-05T13:29:05.581Z,894.8
2022-12-05T13:30:48.968Z,893.8
2022-12-05T13:32:32.372Z,895.5
2022-12-05T13:34:15.772Z,905.2
2022-12-05T13:35:59.155Z,905
2022-12-05T13:41:08.406Z,920.4
2022-12-05T13:42:51.789Z,926.8
2022-12-05T13:44:35.206Z,937.5
2022-12-05T13:46:18.590Z,946.2
2022-12-05T13:48:02.040Z,942.6
2022-12-05T13:49:45.375Z,937.5
2022-12-05T13:51:28.768Z,934.7
2022-12-05T13:53:12.184Z,933.6
2022-12-05T13:54:55.584Z,933.6
2022-12-05T13:56:39.273Z,930.2
2022-12-05T13:58:22.656Z,924.2
2022-12-05T14:00:06.087Z,923.6
2022-12-05T14:01:49.482Z,923
2022-12-05T14:03:32.865Z,923.1
2022-12-05T14:05:16.258Z,922
2022-12-05T14:06:59.663Z,922.5
2022-12-05T14:08:43.068Z,924.2
2022-12-05T14:13:52.282Z,924.6
2022-12-05T14:15:35.692Z,930.1
2022-12-05T14:17:19.075Z,939.7
2022-12-05T14:19:02.525Z,957
2022-12-05T14:20:45.889Z,971.3
2022-12-05T14:22:29.361Z,980.4
2022-12-05T14:24:12.725Z,995.4
2022-12-05T14:25:56.065Z,1016.4
2022-12-05T14:29:22.555Z,1019.7
2022-12-05T14:31:05.954Z,1022.5
2022-12-05T14:32:49.337Z,1030.6
2022-12-05T14:34:32.749Z,1042.4
2022-12-05T14:36:16.124Z,1046
2022-12-05T14:37:59.536Z,1044.8
2022-12-05T14:39:42.901Z,1040.2
2022-12-05T14:41:26.325Z,1036.1
2022-12-05T14:43:10.013Z,1031.4
2022-12-05T14:44:53.449Z,1030.2
2022-12-05T14:46:36.817Z,1032.4
2022-12-05T14:48:20.242Z,1031
2022-12-05T14:50:03.615Z,1031.5
2022-12-05T14:51:47.005Z,1028.8
2022-12-05T14:53:30.453Z,1026.8
2022-12-05T14:55:13.803Z,1026.5
2022-12-05T15:00:23.045Z,1033.8
2022-12-05T15:02:06.466Z,1038.2
2022-12-05T15:03:49.830Z,1046.2
2022-12-05T15:05:33.229Z,1056.1
2022-12-05T15:07:16.621Z,1062.2
2022-12-05T15:09:00.019Z,1067.8
2022-12-05T15:10:43.404Z,1078.2
2022-12-05T15:12:26.792Z,1081.6
2022-12-05T15:15:53.275Z,1071.6
2022-12-05T15:17:36.667Z,1061
2022-12-05T15:19:20.071Z,1053
2022-12-05T15:21:03.477Z,1045.7
2022-12-05T15:22:46.910Z,1038.5
2022-12-05T15:24:30.256Z,1030.1
2022-12-05T15:26:13.661Z,1024.5
2022-12-05T15:27:57.116Z,1022.8
2022-12-05T15:31:23.531Z,1027
2022-12-05T15:33:06.910Z,1026.3
2022-12-05T15:34:50.300Z,1024.1
2022-12-05T15:36:33.734Z,1019.8
2022-12-05T15:38:17.109Z,1015.7
2022-12-05T15:40:00.521Z,1010.2
2022-12-05T15:41:43.902Z,1006.6
2022-12-05T15:43:27.316Z,1005.3
2022-12-05T15:46:53.781Z,1000.1
2022-12-05T15:48:37.171Z,997.3
2022-12-05T15:50:20.558Z,993.4
2022-12-05T15:52:03.982Z,995.4
2022-12-05T15:53:47.350Z,994.4
2022-12-05T15:55:30.761Z,992.3
2022-12-05T15:57:14.146Z,989.1
2022-12-05T15:58:57.556Z,988.4
2022-12-05T16:02:24.023Z,993.4
2022-12-05T16:04:07.419Z,993.6
2022-12-05T16:05:50.802Z,996.6
2022-12-05T16:07:34.241Z,996.7
2022-12-05T16:09:17.604Z,999
2022-12-05T16:11:00.999Z,996.7
2022-12-05T16:12:44.391Z,995.8
2022-12-05T16:14:27.799Z,996.6
2022-12-05T16:17:54.351Z,1000.4
2022-12-05T16:19:37.658Z,1001.8
2022-12-05T16:21:21.116Z,999.3
2022-12-05T16:23:04.505Z,1002.2
2022-12-05T16:24:47.855Z,1012.2
2022-12-05T16:26:31.246Z,1034
2022-12-05T16:28:14.635Z,1070.5
2022-12-05T16:29:58.031Z,1070.2
2022-12-05T16:33:24.511Z,1074
2022-12-05T16:35:07.916Z,1066.5
2022-12-05T16:36:51.310Z,1062.2
2022-12-05T16:38:34.712Z,1058.2
2022-12-05T16:40:18.098Z,1053.7
2022-12-05T16:42:01.496Z,1052.5
2022-12-05T16:43:44.930Z,1050.6
2022-12-05T16:45:28.293Z,1050.7
2022-12-05T16:48:54.763Z,1062.6
2022-12-05T16:50:38.166Z,1064.6
2022-12-05T16:52:21.550Z,1066.8
2022-12-05T16:54:04.943Z,1069.4
2022-12-05T16:55:48.393Z,1076.2
2022-12-05T16:57:31.744Z,1088.3
2022-12-05T16:59:15.145Z,1100.4
2022-12-05T17:00:58.544Z,1102.1
2022-12-05T17:04:25.029Z,1097.4
2022-12-05T17:07:51.795Z,1094.5
2022-12-05T17:09:35.254Z,1087.8
2022-12-05T17:11:18.613Z,1084.1
2022-12-05T17:13:01.983Z,1082.8
2022-12-05T17:14:45.400Z,1081.4
2022-12-05T17:16:28.772Z,1079.4
2022-12-05T17:26:48.204Z,1061
2022-12-05T17:28:31.600Z,1058.1
2022-12-05T17:30:15.007Z,1056.8
2022-12-05T17:31:58.405Z,1052
2022-12-05T17:33:41.825Z,1048.6
2022-12-05T17:35:25.201Z,1047.7
2022-12-05T17:37:08.887Z,1049.7
2022-12-05T17:38:52.298Z,1050.2
2022-12-05T17:40:35.710Z,1048.2
2022-12-05T17:42:19.088Z,1047
2022-12-05T17:44:02.489Z,1047
2022-12-05T17:45:46.024Z,1050.5
2022-12-05T17:47:29.477Z,1054.2
2022-12-05T17:49:12.837Z,1058.3
2022-12-05T17:52:39.196Z,1062.7
2022-12-05T17:54:22.559Z,1063.1
2022-12-05T17:56:06.094Z,1063.4
2022-12-05T17:57:49.443Z,1062.6
2022-12-05T17:59:32.906Z,1062.3
2022-12-05T18:01:16.343Z,1061.1
2022-12-05T18:02:59.658Z,1059.3
2022-12-05T18:04:42.924Z,1056.3
2022-12-05T18:08:09.411Z,1055.4
2022-12-05T18:09:52.794Z,1053.5
2022-12-05T18:11:36.243Z,1054.3
2022-12-05T18:13:19.783Z,1055
2022-12-05T18:15:03.147Z,1052.8
2022-12-05T18:16:46.391Z,1053.3
2022-12-05T18:18:29.774Z,1054.5
2022-12-05T18:20:13.308Z,1058.8
2022-12-05T18:25:22.608Z,1061.8
2022-12-05T18:27:06.001Z,1056.7
2022-12-05T18:28:49.345Z,1060
2022-12-05T18:30:32.601Z,1061
2022-12-05T18:32:16.177Z,1061.6
2022-12-05T18:33:59.448Z,1065.6
2022-12-05T18:35:42.783Z,1074.4
2022-12-05T18:37:26.181Z,1088.1
2022-12-05T18:40:52.665Z,1097.6
2022-12-05T18:42:36.051Z,1110.5
2022-12-05T18:44:19.568Z,1121
2022-12-05T18:46:02.917Z,1120
2022-12-05T18:47:46.326Z,1118.1
2022-12-05T18:49:29.753Z,1118.6
2022-12-05T18:51:13.131Z,1119.8
2022-12-05T18:52:56.422Z,1121.8
2022-12-05T18:58:05.854Z,1133.4
2022-12-05T18:59:49.197Z,1133.6
2022-12-05T19:01:32.683Z,1132.8
2022-12-05T19:03:15.953Z,1134.8
2022-12-05T19:04:59.268Z,1145.4
2022-12-05T19:06:42.654Z,1155.4
2022-12-05T19:08:26.099Z,1167
2022-12-05T19:10:09.562Z,1178.8
2022-12-05T19:15:18.755Z,1193.4
2022-12-05T19:17:02.272Z,1198.5
2022-12-05T19:18:45.615Z,1203.4
2022-12-05T19:20:29.077Z,1201.8
2022-12-05T19:22:12.378Z,1196
2022-12-05T19:23:55.759Z,1191.7
2022-12-05T19:25:39.088Z,1192.2
2022-12-05T19:27:22.490Z,1194.7
2022-12-05T19:29:05.877Z,1198.8
2022-12-05T19:32:32.364Z,1205.2
2022-12-05T19:34:15.760Z,1209.5
2022-12-05T19:35:59.147Z,1207.7
2022-12-05T19:37:42.545Z,1199.4
2022-12-05T19:39:25.931Z,1190.4
2022-12-05T19:41:09.334Z,1184.4
2022-12-05T19:42:52.735Z,1180.5
2022-12-05T19:44:36.117Z,1178.7
2022-12-05T19:49:45.380Z,1193.2
2022-12-05T19:51:28.774Z,1196
2022-12-05T19:53:12.162Z,1192.5
2022-12-05T19:54:55.571Z,1192.3
2022-12-05T19:56:38.951Z,1192.6
2022-12-05T19:58:22.355Z,1193.1
2022-12-05T20:00:05.748Z,1191
2022-12-05T20:01:49.159Z,1192.4
2022-12-05T20:06:59.014Z,1196.8
2022-12-05T20:08:42.410Z,1197.8
2022-12-05T20:10:25.833Z,1194.6
2022-12-05T20:12:09.201Z,1193.2
2022-12-05T20:13:52.604Z,1189.1
2022-12-05T20:15:35.993Z,1186.2
2022-12-05T20:17:19.395Z,1187.3
2022-12-05T20:22:28.643Z,1189.2
2022-12-05T20:24:12.050Z,1185.1
2022-12-05T20:25:55.433Z,1183.7
2022-12-05T20:27:38.831Z,1182.3
2022-12-05T20:29:22.234Z,1184.7
2022-12-05T20:31:05.630Z,1184.6
2022-12-05T20:32:49.019Z,1184.7
2022-12-05T20:34:32.428Z,1192.7
2022-12-05T20:37:58.910Z,1190.2
2022-12-05T20:39:42.298Z,1187.8
2022-12-05T20:41:25.678Z,1187.5
2022-12-05T20:43:09.082Z,1189.8
2022-12-05T20:44:52.476Z,1195.5
2022-12-05T20:46:35.879Z,1195.7
2022-12-05T20:48:19.275Z,1195.4
2022-12-05T20:50:02.674Z,1193
2022-12-05T20:55:11.915Z,1208.1
2022-12-05T20:56:55.298Z,1211.7
2022-12-05T20:58:38.720Z,1211.3
2022-12-05T21:00:22.092Z,1207.8
2022-12-05T21:02:05.497Z,1204.5
2022-12-05T21:03:48.937Z,1200
2022-12-05T21:05:32.298Z,1196.3
2022-12-05T21:07:15.769Z,1193.7
2022-12-05T21:10:42.157Z,1189.2
2022-12-05T21:12:25.564Z,1193.2
2022-12-05T21:14:08.977Z,1192.5
2022-12-05T21:15:52.402Z,1194.1
2022-12-05T21:17:35.757Z,1198.7
2022-12-05T21:19:19.156Z,1199.8
2022-12-05T21:21:02.530Z,1197.2
2022-12-05T21:22:45.959Z,1197.5
2022-12-05T21:27:55.175Z,1197
2022-12-05T21:29:38.575Z,1195.8
2022-12-05T21:31:21.974Z,1194
2022-12-05T21:33:05.367Z,1193
2022-12-05T21:34:48.773Z,1196.4
2022-12-05T21:36:32.161Z,1199.5
2022-12-05T21:38:15.557Z,1202.8
2022-12-05T21:39:58.961Z,1206.5
2022-12-05T21:45:08.190Z,1217.4
2022-12-05T21:46:51.600Z,1225.6
2022-12-05T21:48:34.988Z,1226.6
2022-12-05T21:50:18.384Z,1224.5
2022-12-05T21:52:01.782Z,1225.7
2022-12-05T21:53:45.179Z,1226.1
2022-12-05T21:55:28.580Z,1229.3
2022-12-05T21:57:11.975Z,1232.8
2022-12-05T22:02:21.218Z,1237.1
2022-12-05T22:04:04.636Z,1233.7
2022-12-05T22:05:48.014Z,1229.1
2022-12-05T22:07:31.539Z,1233.8
2022-12-05T22:09:14.800Z,1239.8
2022-12-05T22:10:58.199Z,1239.6
2022-12-05T22:12:41.604Z,1238.7
2022-12-05T22:14:24.987Z,1236
2022-12-05T22:16:08.379Z,1234.4
2022-12-05T22:17:52.080Z,1234
2022-12-05T22:19:35.538Z,1231.6
2022-12-05T22:21:18.894Z,1233.1
2022-12-05T22:23:02.272Z,1240
2022-12-05T22:24:45.675Z,1238.2
2022-12-05T22:26:29.077Z,1237.8
2022-12-05T22:28:12.480Z,1241.2
2022-12-05T22:29:55.873Z,1283.4
2022-12-05T22:31:39.260Z,1298.2
2022-12-05T22:35:05.743Z,1276.6
2022-12-05T22:36:49.140Z,1266.4
2022-12-05T22:38:32.536Z,1260.5
2022-12-05T22:40:15.942Z,1251.8
2022-12-05T22:41:59.317Z,1248.5
2022-12-05T22:43:42.721Z,1243.2
2022-12-05T22:45:26.152Z,1236
2022-12-05T22:47:09.519Z,1225.3
2022-12-05T22:48:52.927Z,1219.2
2022-12-05T22:50:36.627Z,1217.1
2022-12-05T22:52:20.012Z,1213.2
2022-12-05T22:54:03.420Z,1214
2022-12-05T22:55:46.796Z,1216.1
2022-12-05T22:57:30.198Z,1213.1
2022-12-05T22:59:13.608Z,1213.5
2022-12-05T23:00:56.996Z,1213.5
2022-12-05T23:02:40.404Z,1209.8
2022-12-05T23:04:23.790Z,1209.3
2022-12-05T23:07:50.278Z,1210.6
2022-12-05T23:09:33.662Z,1213.6
2022-12-05T23:11:17.172Z,1212.4
2022-12-05T23:13:00.450Z,1213.4
2022-12-05T23:14:43.910Z,1213.4
2022-12-05T23:16:27.486Z,1211.1
2022-12-05T23:18:10.655Z,1208.4
2022-12-05T23:19:54.049Z,1211.4
2022-12-05T23:21:37.452Z,1215.3
2022-12-05T23:26:46.683Z,1215.1
2022-12-05T23:28:30.208Z,1213.7
2022-12-05T23:30:13.464Z,1215.8
2022-12-05T23:31:56.882Z,1216.2
2022-12-05T23:33:40.264Z,1213.7
2022-12-05T23:35:23.697Z,1211
2022-12-05T23:37:07.067Z,1208.3
2022-12-05T23:38:50.988Z,1207
2022-12-05T23:40:33.856Z,1206.6
2022-12-05T23:47:25.866Z,1202.3
2022-12-05T23:49:09.254Z,1200.2
2022-12-05T23:50:52.662Z,1199
2022-12-05T23:52:36.051Z,1197.1
2022-12-05T23:54:19.444Z,1194.4
2022-12-05T23:56:02.842Z,1196.1
2022-12-05T23:57:46.284Z,1194.7
2022-12-05T23:59:29.657Z,1191.4
